LPPT

Lisbon Portela Airport

Code ICAO LPPT
Code IATA LIS
Nom Lisbon Portela Airport
Emplacement Lisbon, Lisbon, PT
Élévation 374 pieds / 114 mètres
Latitude 38.78129959
Longitude -9.13591957
METAR LPPT 012330Z 24005KT 9999 FEW008 BKN012 20/18 Q1017
Informations extras Afficher cartes et CFS
Afficher NOTAMS
Piste Longueur Largeur Surface Élévation
03 12484 ft 148 ft ASP 331 ft
17 7874 ft 148 ft ASP 374 ft
21 12484 ft 148 ft ASP 347 ft
35 7874 ft 148 ft ASP 332 ft